Time;durP1;ratioP1;P1;durP2;ratioP2;P2;SDS_P1;SDS_P2;PMS_P1;PMS_P2;Temp;Humidity;BMP_temperature;BMP_pressure;BME280_temperature;BME280_humidity;BME280_pressure;Samples;Min_cycle;Max_cycle;Signal;HPM_P1;HPM_P2
2021/04/11 00:00:59;;;;;;;4.40;3.90;;;10.10;67.00;;;;;;5042013;28;20230;-59
2021/04/11 00:03:26;;;;;;;5.80;3.90;;;10.10;67.70;;;;;;5051312;28;20175;-59
2021/04/11 00:05:53;;;;;;;5.57;3.83;;;10.00;68.70;;;;;;5051650;28;20215;-59
2021/04/11 00:08:20;;;;;;;5.23;3.63;;;10.00;68.70;;;;;;5050124;28;20437;-59
2021/04/11 00:10:53;;;;;;;7.73;3.90;;;10.00;68.90;;;;;;5050509;28;20433;-59
2021/04/11 00:13:39;;;;;;;6.37;3.80;;;10.00;69.80;;;;;;5051604;28;20424;-59
2021/04/11 00:16:06;;;;;;;5.73;3.53;;;9.90;71.70;;;;;;5050603;28;20468;-59
2021/04/11 00:18:32;;;;;;;5.87;3.37;;;9.90;72.00;;;;;;5049119;28;21001;-58
2021/04/11 00:20:58;;;;;;;9.50;3.80;;;9.90;72.00;;;;;;5043407;28;20418;-59
2021/04/11 00:23:26;;;;;;;5.40;4.00;;;9.80;71.80;;;;;;5052388;28;20409;-58
2021/04/11 00:25:52;;;;;;;4.00;3.30;;;9.70;72.00;;;;;;5046395;28;20942;-58
2021/04/11 00:28:19;;;;;;;5.77;3.57;;;9.70;72.20;;;;;;5043683;28;20514;-59
2021/04/11 00:30:45;;;;;;;5.17;3.60;;;9.70;72.20;;;;;;5049884;28;20831;-58
2021/04/11 00:33:23;;;;;;;6.80;3.13;;;9.70;72.00;;;;;;5048618;28;20461;-59
2021/04/11 00:35:57;;;;;;;5.83;3.60;;;9.70;72.70;;;;;;5031585;28;20558;-58
2021/04/11 00:38:23;;;;;;;8.43;4.00;;;9.60;73.40;;;;;;5044026;28;20437;-58
2021/04/11 00:40:49;;;;;;;7.57;3.77;;;9.60;74.00;;;;;;5047637;28;20487;-57
2021/04/11 00:43:19;;;;;;;6.00;4.30;;;9.50;75.30;;;;;;5046024;28;20449;-59
2021/04/11 00:45:45;;;;;;;3.87;3.37;;;9.50;75.50;;;;;;5050550;28;20699;-59
2021/04/11 00:48:12;;;;;;;4.90;3.53;;;9.50;76.00;;;;;;5047184;28;20436;-59
2021/04/11 00:50:38;;;;;;;4.27;3.30;;;9.40;76.20;;;;;;5042674;28;20671;-58
2021/04/11 00:53:06;;;;;;;6.00;3.60;;;9.40;75.70;;;;;;5037613;28;20462;-59
2021/04/11 00:55:32;;;;;;;4.83;3.43;;;9.40;76.00;;;;;;5037711;28;20461;-61
2021/04/11 00:57:58;;;;;;;4.97;3.80;;;9.40;76.20;;;;;;5051258;28;20775;-59
2021/04/11 01:00:32;;;;;;;6.47;3.70;;;9.40;76.40;;;;;;5043582;28;20918;-58
2021/04/11 01:02:58;;;;;;;3.17;2.87;;;9.40;76.70;;;;;;5056601;28;20523;-59
2021/04/11 01:05:35;;;;;;;5.23;3.10;;;9.40;77.10;;;;;;5049695;28;20453;-59
2021/04/11 01:08:10;;;;;;;4.87;3.30;;;9.30;77.00;;;;;;5044150;28;20437;-58
2021/04/11 01:10:55;;;;;;;3.23;2.90;;;9.30;77.70;;;;;;5049836;28;20425;-59
2021/04/11 01:13:22;;;;;;;3.60;2.80;;;9.30;77.80;;;;;;5049394;28;20831;-58
2021/04/11 01:15:48;;;;;;;5.17;3.00;;;9.20;77.90;;;;;;5049426;28;20469;-58
2021/04/11 01:18:14;;;;;;;3.23;2.67;;;9.20;78.40;;;;;;5043431;28;20449;-58
2021/04/11 01:20:41;;;;;;;3.13;2.70;;;9.10;78.60;;;;;;5040389;28;20454;-58
2021/04/11 01:23:18;;;;;;;4.50;3.27;;;9.10;79.20;;;;;;5040179;28;20429;-57
2021/04/11 01:25:45;;;;;;;4.30;3.10;;;9.10;80.10;;;;;;5044834;28;20991;-59
2021/04/11 01:28:20;;;;;;;7.10;3.20;;;9.00;81.20;;;;;;5041940;28;20417;-58
2021/04/11 01:30:47;;;;;;;7.20;2.87;;;9.00;81.60;;;;;;5049027;28;20433;-59
2021/04/11 01:33:18;;;;;;;4.37;2.80;;;9.00;82.10;;;;;;5039777;28;20964;-58
2021/04/11 01:35:51;;;;;;;4.20;3.50;;;9.00;82.40;;;;;;5049229;28;20488;-59
2021/04/11 01:38:17;;;;;;;4.07;3.00;;;9.00;82.20;;;;;;5049903;28;20925;-58
2021/04/11 01:41:17;;;;;;;2.80;2.50;;;9.00;82.50;;;;;;5045846;28;20655;-58
2021/04/11 01:43:44;;;;;;;3.10;2.30;;;8.90;82.50;;;;;;5050060;28;20628;-59
2021/04/11 01:46:11;;;;;;;3.37;2.73;;;8.90;83.00;;;;;;5045977;28;20548;-59
2021/04/11 01:48:37;;;;;;;5.93;2.73;;;8.90;83.60;;;;;;5043391;28;20835;-58
2021/04/11 01:51:06;;;;;;;6.07;3.03;;;8.90;83.80;;;;;;5056309;28;20440;-59
2021/04/11 01:53:33;;;;;;;3.97;3.00;;;8.90;84.10;;;;;;5039103;28;20421;-59
2021/04/11 01:55:59;;;;;;;7.47;3.30;;;8.80;84.30;;;;;;5047680;28;20469;-59
2021/04/11 01:58:27;;;;;;;3.90;3.30;;;8.80;84.70;;;;;;5046118;28;21010;-58
2021/04/11 02:00:58;;;;;;;4.10;3.30;;;8.80;85.00;;;;;;5046334;28;20487;-59
2021/04/11 02:03:24;;;;;;;6.70;3.53;;;8.70;85.10;;;;;;5049707;28;20453;-58
2021/04/11 02:05:50;;;;;;;3.37;3.00;;;8.70;85.20;;;;;;5036558;28;20454;-59
2021/04/11 02:08:22;;;;;;;5.40;3.00;;;8.70;85.50;;;;;;5048978;28;20198;-59
2021/04/11 02:10:54;;;;;;;7.00;3.00;;;8.70;85.70;;;;;;5046109;28;20622;-58
2021/04/11 02:13:40;;;;;;;4.97;3.20;;;8.70;86.10;;;;;;5045482;28;20487;-59
2021/04/11 02:16:10;;;;;;;3.67;2.70;;;8.70;87.50;;;;;;5039642;28;20453;-59
2021/04/11 02:18:36;;;;;;;4.30;3.47;;;8.70;87.50;;;;;;5042656;28;20448;-59
2021/04/11 02:21:05;;;;;;;3.47;3.17;;;8.70;87.10;;;;;;5039881;28;20848;-59
2021/04/11 02:23:31;;;;;;;5.10;3.17;;;8.70;87.00;;;;;;5043122;28;20912;-58
2021/04/11 02:25:57;;;;;;;13.10;3.33;;;8.70;87.00;;;;;;5029686;28;20452;-59
2021/04/11 02:28:29;;;;;;;5.10;3.50;;;8.60;87.60;;;;;;5040564;28;20265;-58
2021/04/11 02:31:16;;;;;;;4.30;2.90;;;8.60;87.60;;;;;;5041606;28;20429;-58
2021/04/11 02:34:02;;;;;;;3.80;3.43;;;8.60;88.40;;;;;;5029563;28;20426;-58
2021/04/11 02:36:43;;;;;;;4.17;3.77;;;8.50;88.50;;;;;;5036077;28;20449;-59
2021/04/11 02:39:14;;;;;;;4.43;3.40;;;8.50;88.50;;;;;;5045587;28;20432;-58
2021/04/11 02:41:40;;;;;;;3.60;3.30;;;8.50;88.30;;;;;;5047728;28;20588;-59
2021/04/11 02:44:07;;;;;;;8.03;3.67;;;8.40;88.30;;;;;;5041113;28;20819;-58
2021/04/11 02:46:35;;;;;;;4.90;2.97;;;8.40;88.30;;;;;;5049379;28;20476;-59
2021/04/11 02:49:02;;;;;;;5.50;3.30;;;8.40;88.30;;;;;;5041007;28;20472;-58
2021/04/11 02:51:32;;;;;;;4.87;3.13;;;8.40;88.40;;;;;;5039929;28;20444;-58
2021/04/11 02:54:00;;;;;;;3.27;2.97;;;8.40;88.80;;;;;;5048987;28;20421;-59
2021/04/11 02:56:27;;;;;;;4.00;3.00;;;8.40;89.00;;;;;;5048946;28;20544;-59
2021/04/11 02:58:53;;;;;;;2.90;2.70;;;8.30;89.70;;;;;;5048058;28;20410;-58
2021/04/11 03:01:41;;;;;;;5.10;2.63;;;8.30;89.60;;;;;;5042821;28;20468;-58
2021/04/11 03:04:06;;;;;;;5.47;3.20;;;8.30;89.60;;;;;;5029226;28;20456;-59
2021/04/11 03:06:37;;;;;;;3.30;3.00;;;8.30;89.50;;;;;;5046109;28;20911;-58
2021/04/11 03:09:09;;;;;;;5.10;2.97;;;8.30;90.10;;;;;;5048902;28;20520;-58
2021/04/11 03:11:42;;;;;;;3.73;2.70;;;8.30;90.20;;;;;;5040564;28;20437;-58
2021/04/11 03:14:10;;;;;;;6.73;2.73;;;8.20;90.10;;;;;;5046743;28;20520;-59
2021/04/11 03:16:38;;;;;;;3.13;2.83;;;8.20;90.30;;;;;;5044352;28;20496;-58
2021/04/11 03:19:04;;;;;;;4.63;2.53;;;8.20;90.30;;;;;;5037916;28;20429;-59
2021/04/11 03:21:31;;;;;;;5.77;2.97;;;8.20;90.20;;;;;;5048865;28;20432;-59
2021/04/11 03:23:57;;;;;;;9.10;3.70;;;8.20;90.20;;;;;;5047858;28;20472;-57
2021/04/11 03:26:50;;;;;;;5.17;3.50;;;8.20;90.20;;;;;;5045940;28;20463;-59
2021/04/11 03:29:34;;;;;;;3.33;3.03;;;8.20;90.40;;;;;;5042101;28;20431;-59
2021/04/11 03:32:28;;;;;;;4.40;3.00;;;8.10;90.50;;;;;;5033622;28;20432;-58
2021/04/11 03:34:56;;;;;;;4.40;3.27;;;8.10;90.60;;;;;;5035629;28;20450;-59
2021/04/11 03:37:24;;;;;;;8.53;5.10;;;8.10;90.50;;;;;;5045769;28;20918;-59
2021/04/11 03:39:50;;;;;;;5.67;3.80;;;8.10;90.40;;;;;;5051280;28;20429;-58
2021/04/11 03:42:20;;;;;;;3.57;3.17;;;8.10;90.50;;;;;;5049838;28;20436;-58
2021/04/11 03:44:47;;;;;;;4.63;2.90;;;8.10;90.90;;;;;;5048128;28;20571;-59
2021/04/11 03:47:19;;;;;;;4.33;2.80;;;8.10;90.90;;;;;;5051298;28;20437;-58
2021/04/11 03:49:58;;;;;;;4.70;2.87;;;8.10;90.80;;;;;;5047673;28;20435;-59
2021/04/11 03:52:42;;;;;;;3.80;3.20;;;8.00;90.90;;;;;;5047906;28;20530;-59
2021/04/11 03:55:14;;;;;;;3.87;3.20;;;8.00;91.00;;;;;;5046848;28;20457;-59
2021/04/11 03:57:49;;;;;;;5.00;2.90;;;8.00;91.30;;;;;;5051373;28;20425;-59
2021/04/11 04:00:19;;;;;;;5.50;3.53;;;7.90;91.50;;;;;;5045392;28;20555;-59
2021/04/11 04:02:46;;;;;;;4.50;3.80;;;7.90;91.70;;;;;;5045223;28;20426;-59
2021/04/11 04:05:16;;;;;;;7.43;3.83;;;7.90;91.70;;;;;;5044625;28;20784;-59
2021/04/11 04:07:51;;;;;;;3.60;3.30;;;7.90;91.70;;;;;;5049175;28;20426;-59
2021/04/11 04:10:20;;;;;;;4.30;3.23;;;7.80;91.70;;;;;;5044427;28;20429;-58
2021/04/11 04:13:00;;;;;;;4.20;3.70;;;7.80;91.90;;;;;;5045029;28;20517;-59
2021/04/11 04:15:52;;;;;;;8.00;3.70;;;7.80;92.10;;;;;;5048966;28;20472;-59
2021/04/11 04:18:45;;;;;;;8.10;3.50;;;7.80;92.10;;;;;;5038452;28;20443;-60
2021/04/11 04:21:38;;;;;;;5.10;3.77;;;7.70;92.20;;;;;;5043498;28;20434;-59
2021/04/11 04:24:06;;;;;;;5.33;3.70;;;7.70;92.30;;;;;;5048349;28;20950;-59
2021/04/11 04:26:44;;;;;;;6.10;3.30;;;7.60;92.40;;;;;;5047584;28;20457;-58
2021/04/11 04:29:34;;;;;;;3.77;3.03;;;7.70;92.40;;;;;;5039946;28;20976;-58
2021/04/11 04:32:16;;;;;;;5.30;3.20;;;7.70;92.30;;;;;;5049429;28;20425;-59
2021/04/11 04:35:09;;;;;;;4.03;3.00;;;7.60;92.20;;;;;;5047259;28;20437;-58
2021/04/11 04:37:43;;;;;;;3.33;2.87;;;7.60;92.30;;;;;;5049251;28;20901;-60
2021/04/11 04:40:19;;;;;;;5.10;3.07;;;7.50;92.40;;;;;;5047906;28;20800;-59
2021/04/11 04:42:58;;;;;;;6.53;2.77;;;7.50;92.30;;;;;;5046738;28;20656;-59
2021/04/11 04:45:42;;;;;;;4.07;2.90;;;7.50;92.50;;;;;;5045880;28;20461;-59
2021/04/11 04:48:40;;;;;;;9.40;3.10;;;7.50;92.50;;;;;;5046329;28;20440;-59
2021/04/11 04:51:22;;;;;;;7.70;3.50;;;7.40;92.60;;;;;;5045910;28;20488;-59
2021/04/11 04:54:26;;;;;;;6.10;3.80;;;7.40;92.70;;;;;;5034185;28;20449;-59
2021/04/11 04:57:11;;;;;;;4.00;3.60;;;7.40;92.90;;;;;;5034939;28;20527;-58
2021/04/11 05:00:14;;;;;;;9.63;3.40;;;7.30;93.30;;;;;;5049297;28;20447;-58
2021/04/11 05:02:54;;;;;;;7.30;3.57;;;7.30;93.40;;;;;;5037162;28;20456;-59
2021/04/11 05:05:21;;;;;;;4.57;3.30;;;7.30;93.50;;;;;;5040832;28;20962;-59
2021/04/11 05:08:02;;;;;;;7.70;4.03;;;7.30;93.50;;;;;;5044057;28;20441;-59
2021/04/11 05:10:36;;;;;;;4.30;3.70;;;7.30;93.40;;;;;;5042865;28;20468;-58
2021/04/11 05:13:18;;;;;;;5.13;3.50;;;7.30;93.30;;;;;;5039443;28;20425;-58
2021/04/11 05:15:48;;;;;;;4.90;3.73;;;7.30;93.40;;;;;;5035552;28;21092;-58
2021/04/11 05:18:40;;;;;;;4.30;3.33;;;7.30;93.40;;;;;;5039573;28;20422;-59
2021/04/11 05:21:24;;;;;;;8.53;4.33;;;7.30;93.60;;;;;;5040558;28;20966;-60
2021/04/11 05:24:01;;;;;;;4.30;3.30;;;7.30;93.60;;;;;;5046347;28;20456;-59
2021/04/11 05:26:30;;;;;;;5.40;3.30;;;7.40;93.60;;;;;;5044304;28;20475;-60
2021/04/11 05:28:56;;;;;;;4.60;3.03;;;7.40;93.50;;;;;;5045513;28;20441;-60
2021/04/11 05:31:29;;;;;;;5.87;2.83;;;7.40;93.40;;;;;;5046962;28;20429;-59
2021/04/11 05:33:55;;;;;;;8.40;3.70;;;7.50;93.40;;;;;;5044111;28;20198;-59
2021/04/11 05:36:50;;;;;;;6.87;3.53;;;7.50;93.30;;;;;;5049198;28;20985;-59
2021/04/11 05:39:34;;;;;;;3.03;2.60;;;7.50;93.30;;;;;;5041926;28;20423;-59
2021/04/11 05:42:37;;;;;;;13.10;3.63;;;7.50;93.60;;;;;;5043225;28;21214;-60
2021/04/11 05:45:21;;;;;;;4.70;3.77;;;7.60;93.80;;;;;;5044663;28;20437;-59
2021/04/11 05:48:13;;;;;;;4.67;3.77;;;7.60;93.70;;;;;;5043500;28;20491;-59
2021/04/11 05:50:50;;;;;;;6.23;3.93;;;7.70;93.60;;;;;;5043011;28;20433;-60
2021/04/11 05:53:19;;;;;;;7.87;5.07;;;7.70;93.40;;;;;;5042475;28;20429;-59
2021/04/11 05:55:58;;;;;;;5.70;4.43;;;7.70;93.30;;;;;;5045397;28;20457;-61
2021/04/11 05:58:30;;;;;;;5.73;4.40;;;7.70;93.10;;;;;;5044453;28;20934;-59
2021/04/11 06:01:20;;;;;;;5.47;4.13;;;7.80;93.10;;;;;;5047906;28;20440;-60
2021/04/11 06:03:54;;;;;;;5.00;3.87;;;7.90;92.90;;;;;;5046804;28;20532;-59
2021/04/11 06:06:34;;;;;;;4.00;3.30;;;7.90;92.70;;;;;;5037235;28;20977;-58
2021/04/11 06:09:27;;;;;;;4.80;3.40;;;8.00;92.50;;;;;;5039553;28;20425;-61
2021/04/11 06:12:05;;;;;;;7.57;3.57;;;8.10;92.40;;;;;;5044645;28;20524;-60
2021/04/11 06:14:36;;;;;;;4.43;3.37;;;8.10;92.40;;;;;;5041058;28;20957;-60
2021/04/11 06:17:11;;;;;;;4.50;3.53;;;8.20;92.20;;;;;;5058459;28;20461;-59
2021/04/11 06:19:42;;;;;;;4.50;3.80;;;8.20;92.10;;;;;;5045526;28;20461;-60
2021/04/11 06:22:17;;;;;;;6.03;3.80;;;8.30;92.10;;;;;;5046094;28;20457;-59
2021/04/11 06:24:55;;;;;;;4.97;3.73;;;8.30;92.40;;;;;;5041291;28;20479;-58
2021/04/11 06:27:41;;;;;;;8.17;4.03;;;8.40;92.80;;;;;;5045853;28;20437;-59
2021/04/11 06:30:35;;;;;;;8.87;3.93;;;8.50;92.80;;;;;;5037619;28;20438;-59
2021/04/11 06:33:12;;;;;;;3.70;3.13;;;8.60;92.40;;;;;;5044038;28;20445;-57
2021/04/11 06:35:44;;;;;;;9.00;4.00;;;8.70;92.20;;;;;;5042168;28;20496;-60
2021/04/11 06:38:15;;;;;;;7.37;4.03;;;8.80;91.60;;;;;;5047065;28;20575;-59
2021/04/11 06:41:02;;;;;;;5.23;3.70;;;8.90;90.90;;;;;;5052798;28;20775;-60
2021/04/11 06:43:49;;;;;;;9.47;4.70;;;9.00;90.80;;;;;;5045984;28;20429;-60
2021/04/11 06:46:36;;;;;;;5.20;4.37;;;9.00;90.80;;;;;;5035133;28;20465;-61
2021/04/11 06:49:23;;;;;;;9.90;4.13;;;9.10;90.70;;;;;;5045019;28;20421;-59
2021/04/11 06:52:13;;;;;;;8.60;4.50;;;9.10;90.60;;;;;;5050835;28;20509;-57
2021/04/11 06:54:57;;;;;;;7.23;4.90;;;9.20;90.50;;;;;;5041828;28;20429;-60
2021/04/11 06:57:41;;;;;;;6.93;3.43;;;9.20;90.50;;;;;;5040769;28;20442;-59
2021/04/11 07:00:07;;;;;;;5.70;3.77;;;9.30;88.10;;;;;;5044430;28;21075;-60
2021/04/11 07:02:48;;;;;;;8.53;4.40;;;9.40;88.00;;;;;;5043333;28;20492;-59
2021/04/11 07:05:26;;;;;;;6.73;3.77;;;9.50;87.50;;;;;;5047404;28;20586;-60
2021/04/11 07:08:35;;;;;;;5.60;4.40;;;9.60;86.80;;;;;;5047814;28;20934;-59
2021/04/11 07:11:35;;;;;;;8.83;3.97;;;9.70;85.60;;;;;;4982249;28;20442;-59
2021/04/11 07:14:25;;;;;;;6.40;4.30;;;9.70;85.00;;;;;;5039978;28;20437;-59
2021/04/11 07:17:22;;;;;;;6.07;4.10;;;9.80;84.60;;;;;;5048302;28;20469;-58
2021/04/11 07:20:25;;;;;;;6.80;3.97;;;9.90;83.50;;;;;;5043183;28;20425;-61
2021/04/11 07:23:23;;;;;;;5.80;4.00;;;10.00;82.00;;;;;;5045265;28;20437;-59
2021/04/11 07:25:55;;;;;;;5.70;3.90;;;10.20;80.90;;;;;;5046701;28;20449;-60
2021/04/11 07:28:31;;;;;;;6.40;4.13;;;10.30;80.60;;;;;;5046048;28;20571;-60
2021/04/11 07:31:39;;;;;;;5.03;4.30;;;10.50;80.50;;;;;;5049276;28;20432;-64
2021/04/11 07:34:17;;;;;;;7.10;4.77;;;10.70;78.40;;;;;;5048293;28;20444;-60
2021/04/11 07:37:08;;;;;;;4.60;3.97;;;10.80;76.40;;;;;;5048338;28;20464;-60
2021/04/11 07:39:45;;;;;;;9.40;4.50;;;11.00;74.00;;;;;;5052134;28;20456;-59
2021/04/11 07:42:29;;;;;;;8.33;4.70;;;11.10;72.10;;;;;;5041069;28;20429;-60
2021/04/11 07:45:30;;;;;;;8.63;4.77;;;11.20;69.70;;;;;;5035800;28;20430;-60
2021/04/11 07:48:24;;;;;;;6.03;3.60;;;11.40;68.40;;;;;;5038649;28;20436;-59
2021/04/11 07:51:01;;;;;;;4.23;3.80;;;11.60;67.60;;;;;;5033203;28;20430;-60
2021/04/11 07:53:47;;;;;;;9.03;5.33;;;11.70;65.80;;;;;;5048276;28;20428;-59
2021/04/11 07:56:50;;;;;;;4.90;3.90;;;11.90;65.20;;;;;;5039878;28;21118;-61
2021/04/11 07:59:34;;;;;;;9.73;4.33;;;12.10;63.80;;;;;;5043839;28;20859;-59
2021/04/11 08:02:24;;;;;;;7.60;4.27;;;12.10;58.70;;;;;;5035818;28;20427;-59
2021/04/11 08:05:15;;;;;;;4.60;3.90;;;12.20;59.70;;;;;;5039716;28;20440;-61
2021/04/11 08:07:59;;;;;;;11.03;3.70;;;12.40;59.50;;;;;;5031913;28;20544;-61
2021/04/11 08:10:50;;;;;;;8.17;3.20;;;12.60;59.60;;;;;;5037971;28;20976;-59
2021/04/11 08:13:37;;;;;;;3.47;3.17;;;12.70;58.00;;;;;;5043171;28;20441;-60
2021/04/11 08:16:07;;;;;;;13.87;3.57;;;12.70;56.50;;;;;;5042595;28;20480;-60
2021/04/11 08:18:36;;;;;;;3.47;2.40;;;12.80;55.80;;;;;;5034618;28;20441;-60
2021/04/11 08:21:23;;;;;;;5.67;3.13;;;12.90;54.80;;;;;;5036425;28;21040;-61
2021/04/11 08:24:10;;;;;;;4.17;2.60;;;13.00;54.50;;;;;;5035890;28;20425;-60
2021/04/11 08:27:06;;;;;;;3.10;2.70;;;13.20;52.30;;;;;;5036440;28;20497;-60
2021/04/11 08:29:57;;;;;;;4.50;2.67;;;13.30;52.20;;;;;;5052142;28;20833;-60
2021/04/11 08:32:50;;;;;;;8.97;3.60;;;13.40;51.30;;;;;;5038114;28;20417;-61
2021/04/11 08:35:34;;;;;;;3.90;2.60;;;13.40;52.30;;;;;;5037790;28;20964;-60
2021/04/11 08:38:09;;;;;;;12.47;7.10;;;13.50;51.00;;;;;;5038456;28;20867;-58
2021/04/11 08:40:56;;;;;;;9.10;5.67;;;13.60;50.80;;;;;;5058417;28;20433;-59
2021/04/11 08:43:49;;;;;;;8.90;6.60;;;13.90;51.40;;;;;;5059111;28;20477;-58
2021/04/11 08:46:36;;;;;;;5.30;2.90;;;14.10;50.50;;;;;;5056234;28;21246;-59
2021/04/11 08:49:25;;;;;;;7.20;3.40;;;14.40;48.90;;;;;;5059401;28;21338;-63
2021/04/11 08:52:02;;;;;;;10.93;4.40;;;14.70;48.30;;;;;;5056514;28;20414;-58
2021/04/11 08:54:47;;;;;;;5.93;3.90;;;14.90;47.50;;;;;;5066559;28;20508;-59
2021/04/11 08:57:25;;;;;;;6.53;3.70;;;15.10;47.60;;;;;;5041623;28;20465;-59
2021/04/11 09:00:08;;;;;;;6.50;2.80;;;15.40;46.60;;;;;;5032583;28;21424;-61
2021/04/11 09:02:52;;;;;;;8.30;3.43;;;15.50;45.70;;;;;;5034994;28;20566;-61
2021/04/11 09:05:40;;;;;;;9.50;4.40;;;15.50;45.50;;;;;;5038402;28;20457;-60
2021/04/11 09:08:23;;;;;;;4.53;2.23;;;15.60;44.30;;;;;;5041733;28;20822;-60
2021/04/11 09:11:25;;;;;;;2.87;2.37;;;15.70;44.00;;;;;;5042414;28;20430;-62
2021/04/11 09:14:31;;;;;;;8.63;2.83;;;15.80;43.80;;;;;;5028886;28;20449;-61
2021/04/11 09:17:14;;;;;;;3.20;2.43;;;15.90;42.80;;;;;;4983603;28;20472;-61
2021/04/11 09:19:59;;;;;;;2.80;2.00;;;16.00;43.00;;;;;;4996532;28;20427;-60
2021/04/11 09:22:49;;;;;;;3.00;1.80;;;16.00;42.50;;;;;;5030661;28;20560;-59
2021/04/11 09:25:26;;;;;;;5.40;1.77;;;15.80;41.60;;;;;;5027512;28;20454;-60
2021/04/11 09:28:04;;;;;;;3.10;1.63;;;15.60;41.20;;;;;;5024168;28;20422;-62
2021/04/11 09:30:48;;;;;;;2.00;1.90;;;15.60;41.70;;;;;;5026884;28;20429;-62
2021/04/11 09:33:48;;;;;;;6.17;2.13;;;15.60;42.40;;;;;;5027241;28;20438;-61
2021/04/11 09:36:26;;;;;;;2.80;2.00;;;15.80;42.60;;;;;;5038501;28;20829;-62
2021/04/11 09:38:52;;;;;;;3.23;2.20;;;15.90;43.10;;;;;;5040160;28;20482;-62
2021/04/11 09:41:45;;;;;;;2.00;1.80;;;16.00;42.80;;;;;;5037300;28;20522;-63
2021/04/11 09:44:35;;;;;;;2.27;2.07;;;16.10;41.20;;;;;;5026491;28;20184;-58
2021/04/11 09:47:27;;;;;;;3.07;2.40;;;16.10;42.00;;;;;;5039731;28;20473;-60
2021/04/11 09:49:59;;;;;;;3.60;2.50;;;16.00;42.10;;;;;;5040993;28;20445;-60
2021/04/11 09:52:43;;;;;;;6.80;2.37;;;16.00;42.90;;;;;;5034423;28;20450;-59
2021/04/11 09:55:12;;;;;;;2.43;2.23;;;16.10;43.30;;;;;;5030655;28;22567;-61
2021/04/11 09:57:59;;;;;;;4.30;3.20;;;16.20;42.90;;;;;;5035565;28;20429;-61
2021/04/11 10:00:35;;;;;;;3.80;3.10;;;16.40;43.10;;;;;;5032282;28;20425;-61
2021/04/11 10:03:36;;;;;;;3.80;2.27;;;16.60;43.50;;;;;;5039240;28;20515;-63
2021/04/11 10:06:19;;;;;;;3.60;1.87;;;16.90;41.80;;;;;;5036489;28;20458;-61
2021/04/11 10:09:12;;;;;;;2.70;2.20;;;17.20;42.40;;;;;;5040796;28;20516;-61
2021/04/11 10:11:53;;;;;;;5.07;1.87;;;17.50;41.90;;;;;;5034766;28;20495;-61
2021/04/11 10:14:45;;;;;;;1.70;1.60;;;17.80;40.70;;;;;;5036240;28;20933;-62
2021/04/11 10:18:02;;;;;;;2.33;2.00;;;18.00;40.70;;;;;;5035971;28;20469;-61
2021/04/11 10:20:56;;;;;;;2.77;2.00;;;18.30;40.40;;;;;;5020327;28;22300;-61
2021/04/11 10:23:53;;;;;;;6.67;1.83;;;18.50;40.10;;;;;;5002978;28;20778;-62
2021/04/11 10:26:37;;;;;;;3.50;1.87;;;18.30;39.60;;;;;;5026211;28;20465;-62
2021/04/11 10:29:10;;;;;;;2.07;1.87;;;18.20;39.30;;;;;;5029160;28;20457;-59
2021/04/11 10:31:52;;;;;;;7.83;3.03;;;18.10;39.50;;;;;;5016350;28;20511;-60
2021/04/11 10:34:27;;;;;;;2.47;2.10;;;18.10;39.90;;;;;;5020121;28;20425;-60
2021/04/11 10:37:08;;;;;;;1.67;1.53;;;18.10;39.10;;;;;;5019668;28;20457;-61
2021/04/11 10:39:52;;;;;;;2.70;1.97;;;18.10;39.10;;;;;;5051093;28;20433;-60
2021/04/11 10:42:31;;;;;;;2.03;1.70;;;18.00;39.80;;;;;;5057283;28;20456;-60
2021/04/11 10:45:25;;;;;;;5.80;1.80;;;18.00;40.80;;;;;;5033605;28;20455;-60
2021/04/11 10:48:09;;;;;;;2.10;1.80;;;18.20;40.60;;;;;;5016993;28;20462;-61
2021/04/11 10:50:58;;;;;;;5.53;1.87;;;18.40;39.90;;;;;;5028997;28;21014;-59
2021/04/11 10:53:55;;;;;;;4.20;2.33;;;18.20;39.50;;;;;;5022700;28;20672;-60
2021/04/11 10:56:45;;;;;;;3.80;2.30;;;18.10;39.70;;;;;;5032738;28;21170;-60
2021/04/11 10:59:11;;;;;;;5.33;2.20;;;17.80;39.20;;;;;;5030127;28;20429;-60
2021/04/11 11:01:52;;;;;;;6.37;2.00;;;17.60;39.80;;;;;;5023735;28;20422;-60
2021/04/11 11:04:32;;;;;;;3.30;2.33;;;17.60;40.30;;;;;;5039168;28;20175;-60
2021/04/11 11:07:24;;;;;;;2.10;1.73;;;17.70;41.20;;;;;;5028145;28;20903;-61
2021/04/11 11:10:13;;;;;;;4.57;2.53;;;17.90;40.40;;;;;;4999614;28;21004;-60
2021/04/11 11:13:15;;;;;;;2.83;1.83;;;18.10;40.10;;;;;;5014946;28;20445;-60
2021/04/11 11:16:10;;;;;;;2.60;2.40;;;18.30;39.90;;;;;;5015265;28;20522;-61
2021/04/11 11:18:54;;;;;;;3.93;1.60;;;18.50;40.20;;;;;;5016094;28;20664;-61
2021/04/11 11:21:41;;;;;;;3.77;2.00;;;18.70;40.20;;;;;;5011533;28;20565;-61
2021/04/11 11:24:27;;;;;;;1.93;1.50;;;18.90;38.90;;;;;;5014448;28;20437;-59
2021/04/11 11:27:29;;;;;;;4.83;2.17;;;19.20;39.20;;;;;;5027915;28;20621;-60
2021/04/11 11:30:38;;;;;;;1.70;1.40;;;19.40;39.10;;;;;;5034660;28;20444;-61
2021/04/11 11:33:18;;;;;;;3.80;2.00;;;19.50;37.70;;;;;;5016902;28;20529;-61
2021/04/11 11:36:08;;;;;;;2.73;1.80;;;19.50;37.50;;;;;;5029724;28;20461;-62
2021/04/11 11:39:04;;;;;;;3.60;2.20;;;19.50;37.40;;;;;;5031969;28;20811;-61
2021/04/11 11:41:42;;;;;;;3.30;2.00;;;19.50;36.80;;;;;;5039728;28;20468;-60
2021/04/11 11:44:43;;;;;;;3.40;1.73;;;19.50;37.60;;;;;;5028822;28;21680;-61
2021/04/11 11:47:24;;;;;;;1.83;1.60;;;19.60;37.30;;;;;;5031203;28;20446;-60
2021/04/11 11:49:59;;;;;;;1.90;1.40;;;19.80;36.70;;;;;;5039581;28;20624;-60
2021/04/11 11:52:41;;;;;;;3.63;1.50;;;19.90;36.80;;;;;;5043889;28;20443;-60
2021/04/11 11:55:22;;;;;;;1.70;1.50;;;20.20;37.10;;;;;;5045303;28;20456;-59
2021/04/11 11:58:17;;;;;;;1.80;1.70;;;20.30;35.50;;;;;;5032347;28;20683;-59
2021/04/11 12:00:57;;;;;;;3.33;1.80;;;20.50;35.50;;;;;;5038277;28;20495;-60
2021/04/11 12:03:23;;;;;;;1.70;1.60;;;20.60;35.70;;;;;;5038461;28;20425;-60
2021/04/11 12:05:53;;;;;;;1.67;1.57;;;20.70;34.60;;;;;;5046852;28;20457;-61
2021/04/11 12:08:43;;;;;;;3.17;1.70;;;20.60;34.70;;;;;;5045146;28;20519;-61
2021/04/11 12:11:16;;;;;;;3.40;2.10;;;20.50;35.20;;;;;;5037864;28;20433;-59
2021/04/11 12:14:08;;;;;;;3.77;1.67;;;20.60;36.60;;;;;;5032550;28;20946;-61
2021/04/11 12:16:37;;;;;;;2.37;1.53;;;20.80;35.00;;;;;;5041231;28;20560;-59
2021/04/11 12:19:28;;;;;;;7.57;1.93;;;21.00;35.50;;;;;;5037508;28;20523;-60
2021/04/11 12:22:03;;;;;;;1.77;1.50;;;21.20;34.80;;;;;;5037661;28;20497;-59
2021/04/11 12:24:40;;;;;;;2.53;1.73;;;21.40;33.40;;;;;;5036554;28;20423;-58
2021/04/11 12:27:09;;;;;;;3.33;1.50;;;21.50;33.20;;;;;;5058700;28;20449;-59
2021/04/11 12:29:45;;;;;;;1.63;1.53;;;21.80;33.00;;;;;;5041370;28;20976;-59
2021/04/11 12:32:25;;;;;;;2.57;1.50;;;22.00;32.60;;;;;;5037162;28;20640;-60
2021/04/11 12:34:59;;;;;;;1.47;1.30;;;22.10;32.70;;;;;;5023721;28;20518;-60
2021/04/11 12:37:52;;;;;;;1.40;1.30;;;22.20;31.40;;;;;;5025192;28;20473;-60
2021/04/11 12:40:40;;;;;;;1.63;1.37;;;22.20;31.90;;;;;;5035041;28;20437;-59
2021/04/11 12:43:40;;;;;;;5.20;1.47;;;22.10;31.80;;;;;;5033735;28;20531;-59
2021/04/11 12:46:14;;;;;;;1.90;1.30;;;21.90;30.70;;;;;;5025893;28;20515;-61
2021/04/11 12:48:57;;;;;;;1.67;1.40;;;21.60;31.30;;;;;;5011947;28;20507;-60
2021/04/11 12:51:38;;;;;;;1.53;1.10;;;21.10;30.80;;;;;;5039364;28;20949;-59
2021/04/11 12:54:12;;;;;;;5.10;1.30;;;20.90;32.70;;;;;;5035050;28;20490;-61
2021/04/11 12:56:42;;;;;;;3.83;2.90;;;21.00;32.80;;;;;;5030086;28;22096;-60
2021/04/11 12:59:21;;;;;;;1.93;1.40;;;21.20;32.30;;;;;;5039919;28;20436;-60
2021/04/11 13:02:28;;;;;;;5.70;1.40;;;21.20;31.70;;;;;;5037427;28;20445;-60
2021/04/11 13:05:05;;;;;;;1.43;1.33;;;21.40;32.30;;;;;;5019846;28;20876;-60
2021/04/11 13:07:40;;;;;;;3.13;1.37;;;21.70;32.10;;;;;;5039911;28;20634;-59
2021/04/11 13:10:18;;;;;;;1.60;1.40;;;21.80;31.80;;;;;;5043291;28;20429;-60
2021/04/11 13:13:05;;;;;;;1.20;1.10;;;22.00;31.50;;;;;;5040058;28;20864;-59
2021/04/11 13:15:54;;;;;;;2.13;1.30;;;22.30;31.20;;;;;;5035095;28;20480;-60
2021/04/11 13:18:34;;;;;;;2.03;1.50;;;22.60;31.20;;;;;;5018609;28;20441;-60
2021/04/11 13:21:28;;;;;;;1.63;1.30;;;22.80;31.60;;;;;;5028047;28;20426;-60
2021/04/11 13:24:20;;;;;;;1.47;1.17;;;23.10;30.80;;;;;;5027751;28;20469;-61
2021/04/11 13:26:53;;;;;;;6.23;1.30;;;23.20;29.70;;;;;;5024111;28;20608;-60
2021/04/11 13:29:30;;;;;;;3.40;1.40;;;23.10;29.80;;;;;;5034878;28;20436;-61
2021/04/11 13:31:58;;;;;;;1.40;1.30;;;22.90;29.70;;;;;;5035995;28;20437;-60
2021/04/11 13:34:44;;;;;;;1.30;1.20;;;22.80;29.80;;;;;;5021436;28;20438;-60
2021/04/11 13:37:15;;;;;;;2.60;1.50;;;22.80;30.70;;;;;;5025961;28;22432;-60
2021/04/11 13:39:49;;;;;;;2.07;1.50;;;23.20;30.60;;;;;;5030129;28;20430;-59
2021/04/11 13:42:50;;;;;;;2.10;1.70;;;23.40;29.70;;;;;;5037809;28;21309;-60
2021/04/11 13:45:34;;;;;;;3.03;1.37;;;23.70;29.30;;;;;;5034509;28;20458;-59
2021/04/11 13:48:10;;;;;;;2.67;1.53;;;23.80;29.60;;;;;;5033015;28;20633;-60
2021/04/11 13:50:38;;;;;;;1.47;1.30;;;23.80;29.80;;;;;;5023574;28;20658;-59
2021/04/11 13:53:33;;;;;;;3.97;1.80;;;23.70;30.00;;;;;;5023100;28;20917;-60
2021/04/11 13:56:02;;;;;;;2.73;1.73;;;23.20;29.60;;;;;;5023874;28;20469;-59
2021/04/11 13:58:44;;;;;;;2.40;1.37;;;22.70;29.70;;;;;;5017261;28;20434;-61